Time;durP1;ratioP1;P1;durP2;ratioP2;P2;SDS_P1;SDS_P2;PMS_P1;PMS_P2;Temp;Humidity;BMP_temperature;BMP_pressure;BME280_temperature;BME280_humidity;BME280_pressure;Samples;Min_cycle;Max_cycle;Signal;HPM_P1;HPM_P2
2023/06/06 00:02:19;;;;;;;12.65;5.97;;;;;;;;;;5055306;28;20065;-75
2023/06/06 00:04:47;;;;;;;9.45;6.10;;;;;;;;;;5057872;28;20059;-75
2023/06/06 00:07:14;;;;;;;7.40;5.78;;;;;;;;;;5059742;28;20035;-75
2023/06/06 00:09:40;;;;;;;7.88;5.72;;;;;;;;;;5052927;28;20044;-75
2023/06/06 00:12:12;;;;;;;9.38;6.43;;;;;;;;;;5053126;28;20051;-76
2023/06/06 00:14:39;;;;;;;9.63;6.35;;;;;;;;;;5049820;28;20025;-75
2023/06/06 00:17:06;;;;;;;7.68;5.30;;;;;;;;;;5052162;28;20043;-75
2023/06/06 00:19:33;;;;;;;10.30;6.25;;;;;;;;;;5054316;28;20028;-76
2023/06/06 00:22:01;;;;;;;10.13;5.88;;;;;;;;;;5052482;28;20102;-75
2023/06/06 00:24:27;;;;;;;8.85;5.50;;;;;;;;;;5059426;28;20032;-75
2023/06/06 00:26:53;;;;;;;6.53;5.53;;;;;;;;;;5063696;28;20591;-75
2023/06/06 00:29:19;;;;;;;8.07;5.57;;;;;;;;;;5053468;28;20035;-75
2023/06/06 00:31:46;;;;;;;8.63;6.22;;;;;;;;;;5054943;28;20040;-76
2023/06/06 00:34:12;;;;;;;8.68;5.43;;;;;;;;;;5057202;28;20037;-75
2023/06/06 00:36:38;;;;;;;9.02;5.68;;;;;;;;;;5062262;28;20037;-75
2023/06/06 00:39:04;;;;;;;9.18;5.72;;;;;;;;;;5059503;28;20024;-76
2023/06/06 00:41:30;;;;;;;9.25;6.90;;;;;;;;;;5066143;28;20028;-76
2023/06/06 00:43:56;;;;;;;10.85;6.72;;;;;;;;;;5081033;28;20025;-75
2023/06/06 00:46:23;;;;;;;9.20;6.00;;;;;;;;;;5053365;28;20035;-75
2023/06/06 00:48:49;;;;;;;8.43;5.97;;;;;;;;;;5061210;28;20028;-75
2023/06/06 00:51:16;;;;;;;7.90;6.07;;;;;;;;;;5067854;28;20028;-76
2023/06/06 00:53:44;;;;;;;7.22;5.72;;;;;;;;;;5068686;28;20382;-75
2023/06/06 00:56:13;;;;;;;10.95;6.32;;;;;;;;;;5073520;28;20028;-75
2023/06/06 00:58:39;;;;;;;10.02;6.63;;;;;;;;;;5055116;28;20021;-75
2023/06/06 01:01:06;;;;;;;10.77;6.13;;;;;;;;;;5059796;28;20032;-75
2023/06/06 01:03:34;;;;;;;9.40;5.88;;;;;;;;;;5068004;28;20036;-75
2023/06/06 01:06:01;;;;;;;9.63;6.95;;;;;;;;;;5061599;28;20514;-75
2023/06/06 01:08:27;;;;;;;10.68;6.18;;;;;;;;;;5069630;28;20043;-77
2023/06/06 01:11:00;;;;;;;10.05;6.40;;;;;;;;;;5063216;28;20565;-75
2023/06/06 01:13:33;;;;;;;7.60;6.03;;;;;;;;;;5061432;28;20068;-76
2023/06/06 01:16:02;;;;;;;8.93;5.82;;;;;;;;;;5067930;28;20028;-75
2023/06/06 01:18:32;;;;;;;7.28;6.07;;;;;;;;;;5066754;28;20033;-75
2023/06/06 01:20:58;;;;;;;10.73;6.53;;;;;;;;;;5063621;28;20534;-75
2023/06/06 01:23:27;;;;;;;10.02;6.32;;;;;;;;;;5059948;28;20033;-75
2023/06/06 01:25:54;;;;;;;10.95;6.32;;;;;;;;;;5057664;28;20162;-75
2023/06/06 01:28:20;;;;;;;8.30;6.20;;;;;;;;;;5057653;28;20025;-75
2023/06/06 01:30:47;;;;;;;10.27;8.00;;;;;;;;;;5054781;28;20120;-75
2023/06/06 01:33:27;;;;;;;11.95;6.03;;;;;;;;;;5069141;28;20032;-75
2023/06/06 01:36:07;;;;;;;11.38;7.13;;;;;;;;;;5056714;28;20035;-76
2023/06/06 01:38:40;;;;;;;9.45;6.07;;;;;;;;;;5060948;28;20100;-76
2023/06/06 01:41:09;;;;;;;9.02;6.90;;;;;;;;;;5062727;28;20136;-75
2023/06/06 01:43:37;;;;;;;8.77;6.03;;;;;;;;;;5052868;28;20126;-75
2023/06/06 01:46:03;;;;;;;12.75;6.30;;;;;;;;;;5054905;28;20063;-75
2023/06/06 01:48:30;;;;;;;8.25;5.70;;;;;;;;;;5055602;28;20096;-74
2023/06/06 01:50:56;;;;;;;8.90;6.60;;;;;;;;;;5066039;28;20037;-75
2023/06/06 01:53:22;;;;;;;7.47;6.45;;;;;;;;;;5059260;28;20112;-75
2023/06/06 01:55:48;;;;;;;9.73;6.20;;;;;;;;;;5066788;28;20025;-76
2023/06/06 01:58:15;;;;;;;8.85;6.28;;;;;;;;;;5058985;28;20051;-75
2023/06/06 02:00:41;;;;;;;11.60;6.47;;;;;;;;;;5053756;28;20108;-75
2023/06/06 02:03:07;;;;;;;9.23;6.03;;;;;;;;;;5059761;28;20032;-75
2023/06/06 02:05:33;;;;;;;11.10;6.90;;;;;;;;;;5053571;28;20036;-75
2023/06/06 02:07:59;;;;;;;8.88;6.28;;;;;;;;;;5065862;28;20032;-75
2023/06/06 02:10:25;;;;;;;8.32;5.63;;;;;;;;;;5063172;28;20060;-75
2023/06/06 02:12:51;;;;;;;8.80;6.97;;;;;;;;;;5049692;28;20029;-75
2023/06/06 02:15:19;;;;;;;9.82;6.57;;;;;;;;;;5061282;28;20024;-75
2023/06/06 02:17:45;;;;;;;10.60;6.68;;;;;;;;;;5063099;28;20029;-75
2023/06/06 02:20:11;;;;;;;10.23;5.97;;;;;;;;;;5056521;28;20378;-75
2023/06/06 02:22:38;;;;;;;12.35;7.43;;;;;;;;;;5064571;28;20036;-76
2023/06/06 02:25:04;;;;;;;8.38;6.00;;;;;;;;;;5059171;28;20025;-76
2023/06/06 02:27:38;;;;;;;9.50;6.30;;;;;;;;;;5059920;28;20382;-75
2023/06/06 02:30:07;;;;;;;8.88;6.97;;;;;;;;;;5053069;28;20045;-75
2023/06/06 02:32:33;;;;;;;10.15;6.93;;;;;;;;;;5053009;28;20039;-76
2023/06/06 02:34:59;;;;;;;9.27;6.93;;;;;;;;;;5053851;28;20530;-76
2023/06/06 02:37:26;;;;;;;10.65;7.20;;;;;;;;;;5068433;28;20036;-75
2023/06/06 02:39:53;;;;;;;12.02;7.20;;;;;;;;;;5054478;28;20398;-75
2023/06/06 02:42:19;;;;;;;9.82;6.60;;;;;;;;;;5052532;28;20474;-75
2023/06/06 02:44:45;;;;;;;10.05;6.25;;;;;;;;;;5053074;28;20136;-75
2023/06/06 02:47:12;;;;;;;12.23;8.35;;;;;;;;;;5060174;28;20021;-75
2023/06/06 02:49:39;;;;;;;10.98;6.70;;;;;;;;;;5059892;28;20032;-76
2023/06/06 02:52:06;;;;;;;12.45;7.47;;;;;;;;;;5059476;28;20036;-76
2023/06/06 02:54:32;;;;;;;10.27;7.32;;;;;;;;;;5054681;28;20033;-74
2023/06/06 02:56:58;;;;;;;11.27;7.32;;;;;;;;;;5059319;28;20178;-75
2023/06/06 02:59:25;;;;;;;9.80;6.72;;;;;;;;;;5054285;28;20060;-75
2023/06/06 03:01:51;;;;;;;10.93;7.32;;;;;;;;;;5053939;28;20028;-76
2023/06/06 03:04:17;;;;;;;12.43;7.72;;;;;;;;;;5058933;28;20557;-76
2023/06/06 03:06:43;;;;;;;12.90;8.27;;;;;;;;;;5059260;28;20036;-75
2023/06/06 03:09:09;;;;;;;16.98;8.68;;;;;;;;;;5059187;28;20037;-76
2023/06/06 03:11:35;;;;;;;11.90;8.20;;;;;;;;;;5060315;28;20032;-75
2023/06/06 03:14:02;;;;;;;13.07;8.85;;;;;;;;;;5059309;28;20024;-75
2023/06/06 03:16:28;;;;;;;14.13;9.13;;;;;;;;;;5055784;28;20082;-75
2023/06/06 03:18:55;;;;;;;11.32;8.65;;;;;;;;;;5055066;28;20454;-75
2023/06/06 03:21:21;;;;;;;12.27;8.68;;;;;;;;;;5061390;28;20025;-75
2023/06/06 03:23:47;;;;;;;12.13;7.65;;;;;;;;;;5065682;28;20056;-75
2023/06/06 03:26:14;;;;;;;13.35;9.00;;;;;;;;;;5058390;28;20024;-75
2023/06/06 03:28:40;;;;;;;10.52;7.60;;;;;;;;;;5050987;28;20024;-75
2023/06/06 03:31:07;;;;;;;10.75;7.88;;;;;;;;;;5064359;28;20070;-75
2023/06/06 03:33:35;;;;;;;12.23;9.13;;;;;;;;;;5058732;28;20578;-76
2023/06/06 03:36:02;;;;;;;14.90;9.02;;;;;;;;;;5055840;28;20024;-75
2023/06/06 03:38:29;;;;;;;13.57;8.90;;;;;;;;;;5069479;28;20051;-75
2023/06/06 03:40:55;;;;;;;16.95;9.20;;;;;;;;;;5058998;28;20094;-75
2023/06/06 03:43:21;;;;;;;13.60;8.32;;;;;;;;;;5054333;28;20032;-75
2023/06/06 03:45:47;;;;;;;15.02;8.57;;;;;;;;;;5058854;28;20100;-76
2023/06/06 03:48:13;;;;;;;13.10;8.88;;;;;;;;;;5063753;28;20036;-76
2023/06/06 03:50:40;;;;;;;15.52;9.63;;;;;;;;;;5057269;28;20082;-75
2023/06/06 03:53:06;;;;;;;11.82;8.15;;;;;;;;;;5054342;28;20526;-75
2023/06/06 03:55:33;;;;;;;12.77;8.55;;;;;;;;;;5060650;28;20040;-75
2023/06/06 03:57:59;;;;;;;12.50;8.82;;;;;;;;;;5060145;28;20029;-76
2023/06/06 04:00:25;;;;;;;9.73;7.30;;;;;;;;;;5052939;28;20119;-76
2023/06/06 04:02:52;;;;;;;11.02;7.38;;;;;;;;;;5063702;28;20036;-75
2023/06/06 04:05:19;;;;;;;10.02;6.93;;;;;;;;;;5064263;28;20025;-75
2023/06/06 04:07:45;;;;;;;11.13;6.93;;;;;;;;;;5070872;28;20033;-74
2023/06/06 04:10:11;;;;;;;11.82;7.70;;;;;;;;;;5068075;28;20032;-75
2023/06/06 04:12:40;;;;;;;15.02;7.20;;;;;;;;;;5060541;28;20081;-75
2023/06/06 04:15:09;;;;;;;10.82;7.82;;;;;;;;;;5053417;28;20112;-75
2023/06/06 04:17:35;;;;;;;12.10;7.82;;;;;;;;;;5053366;28;20402;-75
2023/06/06 04:20:05;;;;;;;12.60;7.72;;;;;;;;;;5049574;28;20459;-75
2023/06/06 04:22:31;;;;;;;11.57;7.70;;;;;;;;;;5054280;28;20021;-76
2023/06/06 04:24:57;;;;;;;11.60;7.68;;;;;;;;;;5058844;28;20031;-76
2023/06/06 04:27:23;;;;;;;11.95;8.25;;;;;;;;;;5055566;28;20017;-76
2023/06/06 04:29:53;;;;;;;14.93;8.00;;;;;;;;;;5058875;28;20063;-75
2023/06/06 04:32:19;;;;;;;9.57;6.93;;;;;;;;;;5059404;28;20033;-75
2023/06/06 04:34:46;;;;;;;9.18;6.95;;;;;;;;;;5059906;28;20147;-76
2023/06/06 04:37:14;;;;;;;9.13;7.30;;;;;;;;;;5059807;28;20055;-76
2023/06/06 04:39:41;;;;;;;12.68;7.82;;;;;;;;;;5058262;28;20029;-75
2023/06/06 04:42:08;;;;;;;15.80;7.65;;;;;;;;;;5053721;28;20058;-75
2023/06/06 04:44:34;;;;;;;10.38;7.43;;;;;;;;;;5055633;28;20033;-75
2023/06/06 04:47:03;;;;;;;11.68;8.20;;;;;;;;;;5049588;28;20098;-75
2023/06/06 04:49:35;;;;;;;13.60;7.93;;;;;;;;;;5060858;28;20364;-76
2023/06/06 04:52:05;;;;;;;11.77;7.72;;;;;;;;;;5049986;28;20032;-74
2023/06/06 04:54:38;;;;;;;14.90;8.43;;;;;;;;;;5054846;28;20044;-76
2023/06/06 04:57:07;;;;;;;13.63;8.43;;;;;;;;;;5058319;28;20028;-75
2023/06/06 04:59:33;;;;;;;15.70;8.43;;;;;;;;;;5053035;28;20051;-76
2023/06/06 05:02:02;;;;;;;12.93;7.82;;;;;;;;;;5057818;28;20025;-75
2023/06/06 05:04:31;;;;;;;12.98;8.35;;;;;;;;;;5052407;28;20013;-76
2023/06/06 05:06:57;;;;;;;12.30;8.73;;;;;;;;;;5053791;28;20029;-76
2023/06/06 05:09:24;;;;;;;11.43;7.55;;;;;;;;;;5054209;28;20352;-75
2023/06/06 05:11:52;;;;;;;12.65;8.48;;;;;;;;;;5050606;28;20037;-75
2023/06/06 05:14:24;;;;;;;13.80;7.90;;;;;;;;;;5060688;28;20129;-75
2023/06/06 05:16:53;;;;;;;17.25;8.80;;;;;;;;;;5060081;28;20028;-75
2023/06/06 05:19:19;;;;;;;13.20;8.30;;;;;;;;;;5062659;28;20027;-75
2023/06/06 05:21:45;;;;;;;17.48;9.13;;;;;;;;;;5056707;28;20287;-75
2023/06/06 05:24:11;;;;;;;13.93;8.77;;;;;;;;;;5056758;28;20047;-74
2023/06/06 05:26:37;;;;;;;14.18;9.35;;;;;;;;;;5067607;28;20637;-75
2023/06/06 05:29:03;;;;;;;10.93;8.30;;;;;;;;;;5064251;28;20086;-76
2023/06/06 05:31:30;;;;;;;12.07;8.75;;;;;;;;;;5057388;28;20119;-75
2023/06/06 05:33:56;;;;;;;13.73;9.40;;;;;;;;;;5055824;28;20041;-75
2023/06/06 05:36:22;;;;;;;16.83;8.65;;;;;;;;;;5056110;28;20545;-76
2023/06/06 05:38:48;;;;;;;10.70;7.53;;;;;;;;;;5057603;28;20040;-76
2023/06/06 05:41:14;;;;;;;14.23;9.02;;;;;;;;;;5064928;28;20079;-75
2023/06/06 05:43:40;;;;;;;13.18;9.07;;;;;;;;;;5060601;28;20021;-76
2023/06/06 05:46:07;;;;;;;13.20;7.93;;;;;;;;;;5058519;28;20033;-76
2023/06/06 05:48:33;;;;;;;11.65;8.75;;;;;;;;;;5064521;28;20033;-76
2023/06/06 05:50:59;;;;;;;13.50;8.07;;;;;;;;;;5068842;28;20427;-76
2023/06/06 05:53:26;;;;;;;12.63;8.88;;;;;;;;;;5057836;28;20098;-75
2023/06/06 05:55:52;;;;;;;11.90;7.82;;;;;;;;;;5066913;28;20424;-75
2023/06/06 05:58:18;;;;;;;15.70;8.52;;;;;;;;;;5058162;28;20077;-76
2023/06/06 06:00:44;;;;;;;13.45;8.32;;;;;;;;;;5057682;28;20074;-76
2023/06/06 06:03:10;;;;;;;13.82;8.50;;;;;;;;;;5058148;28;20029;-75
2023/06/06 06:05:37;;;;;;;15.55;7.90;;;;;;;;;;5054965;28;20025;-76
2023/06/06 06:08:04;;;;;;;14.23;8.60;;;;;;;;;;5058149;28;20025;-76
2023/06/06 06:10:31;;;;;;;14.40;8.13;;;;;;;;;;5055036;28;20035;-76
2023/06/06 06:12:58;;;;;;;12.20;7.95;;;;;;;;;;5064583;28;20064;-76
2023/06/06 06:15:24;;;;;;;9.43;7.18;;;;;;;;;;5066172;28;20441;-76
2023/06/06 06:17:51;;;;;;;11.02;7.78;;;;;;;;;;5059595;28;20021;-76
2023/06/06 06:20:17;;;;;;;10.80;7.40;;;;;;;;;;5049259;28;20080;-77
2023/06/06 06:22:44;;;;;;;12.43;7.78;;;;;;;;;;5059067;28;20029;-76
2023/06/06 06:25:13;;;;;;;11.52;7.43;;;;;;;;;;5056568;28;20039;-76
2023/06/06 06:27:40;;;;;;;9.30;6.70;;;;;;;;;;5059899;28;20040;-75
2023/06/06 06:30:06;;;;;;;11.65;8.30;;;;;;;;;;5058068;28;20052;-75
2023/06/06 06:32:36;;;;;;;10.48;6.40;;;;;;;;;;5057664;28;20037;-76
2023/06/06 06:35:02;;;;;;;7.22;5.70;;;;;;;;;;5055343;28;20417;-76
2023/06/06 06:37:32;;;;;;;12.98;7.72;;;;;;;;;;5063000;28;20017;-75
2023/06/06 06:39:58;;;;;;;10.50;6.95;;;;;;;;;;5061391;28;20023;-76
2023/06/06 06:42:26;;;;;;;12.00;6.65;;;;;;;;;;5056784;28;20049;-76
2023/06/06 06:44:53;;;;;;;9.68;6.60;;;;;;;;;;5052040;28;20095;-76
2023/06/06 06:47:19;;;;;;;10.48;6.75;;;;;;;;;;5064415;28;20025;-75
2023/06/06 06:49:46;;;;;;;10.95;7.32;;;;;;;;;;5054102;28;20028;-76
2023/06/06 06:52:15;;;;;;;11.55;7.07;;;;;;;;;;5060794;28;20054;-76
2023/06/06 06:54:54;;;;;;;10.27;6.70;;;;;;;;;;5058040;28;20036;-76
2023/06/06 06:57:26;;;;;;;10.13;7.07;;;;;;;;;;5059576;28;20025;-76
2023/06/06 06:59:53;;;;;;;10.68;6.65;;;;;;;;;;5055016;28;20402;-76
2023/06/06 07:02:21;;;;;;;9.32;6.65;;;;;;;;;;5059501;28;20396;-75
2023/06/06 07:04:47;;;;;;;10.75;6.72;;;;;;;;;;5056906;28;20142;-77
2023/06/06 07:07:16;;;;;;;9.65;6.13;;;;;;;;;;5059031;28;20509;-75
2023/06/06 07:09:43;;;;;;;8.60;6.13;;;;;;;;;;5061653;28;20501;-76
2023/06/06 07:12:10;;;;;;;9.65;6.63;;;;;;;;;;5057187;28;20086;-76
2023/06/06 07:14:36;;;;;;;8.88;6.40;;;;;;;;;;5053782;28;20107;-75
2023/06/06 07:17:03;;;;;;;9.98;5.90;;;;;;;;;;5056564;28;20033;-76
2023/06/06 07:19:29;;;;;;;7.68;5.43;;;;;;;;;;5055213;28;20116;-77
2023/06/06 07:21:56;;;;;;;7.95;5.72;;;;;;;;;;5056710;28;20624;-76
2023/06/06 07:24:22;;;;;;;8.10;5.45;;;;;;;;;;5047977;28;20024;-76
2023/06/06 07:26:51;;;;;;;10.30;5.88;;;;;;;;;;5053006;28;20037;-76
2023/06/06 07:29:17;;;;;;;8.48;6.43;;;;;;;;;;5049097;28;20021;-76
2023/06/06 07:31:43;;;;;;;9.82;5.53;;;;;;;;;;5049832;28;20100;-75
2023/06/06 07:34:10;;;;;;;8.52;5.18;;;;;;;;;;5053633;28;20660;-76
2023/06/06 07:36:36;;;;;;;12.30;5.53;;;;;;;;;;5055299;28;20086;-76
2023/06/06 07:39:02;;;;;;;9.27;5.25;;;;;;;;;;5062742;28;20024;-76
2023/06/06 07:41:33;;;;;;;9.40;5.78;;;;;;;;;;5047068;28;20053;-76
2023/06/06 07:43:59;;;;;;;7.40;5.70;;;;;;;;;;5050365;28;20021;-76
2023/06/06 07:46:26;;;;;;;8.68;6.03;;;;;;;;;;5059777;28;20503;-76
2023/06/06 07:48:52;;;;;;;11.60;6.57;;;;;;;;;;5057619;28;20024;-76
2023/06/06 07:51:18;;;;;;;12.32;6.43;;;;;;;;;;5052370;28;20035;-77
2023/06/06 07:53:44;;;;;;;10.40;5.95;;;;;;;;;;5050549;28;20103;-76
2023/06/06 07:56:13;;;;;;;9.77;6.25;;;;;;;;;;5054404;28;20075;-76
2023/06/06 07:58:43;;;;;;;10.55;6.18;;;;;;;;;;5055557;28;20025;-76
2023/06/06 08:01:12;;;;;;;10.15;6.78;;;;;;;;;;5049772;28;20029;-76
2023/06/06 08:03:39;;;;;;;11.85;6.57;;;;;;;;;;5048420;28;20028;-76
2023/06/06 08:06:05;;;;;;;13.07;6.55;;;;;;;;;;5058196;28;20037;-76
2023/06/06 08:08:32;;;;;;;9.95;5.80;;;;;;;;;;5054188;28;20394;-75
2023/06/06 08:10:58;;;;;;;10.25;5.68;;;;;;;;;;5047784;28;20028;-75
2023/06/06 08:13:24;;;;;;;9.45;6.60;;;;;;;;;;5060531;28;20028;-76
2023/06/06 08:15:50;;;;;;;9.60;6.50;;;;;;;;;;5045723;28;20106;-75
2023/06/06 08:18:16;;;;;;;9.80;6.00;;;;;;;;;;5049628;28;20386;-76
2023/06/06 08:20:42;;;;;;;7.40;5.28;;;;;;;;;;5063706;28;20492;-76
2023/06/06 08:23:08;;;;;;;8.10;5.90;;;;;;;;;;5053575;28;20033;-76
2023/06/06 08:25:44;;;;;;;11.85;6.40;;;;;;;;;;5050215;28;20585;-75
2023/06/06 08:28:10;;;;;;;7.03;5.65;;;;;;;;;;5048235;28;20024;-78
2023/06/06 08:30:36;;;;;;;11.07;7.03;;;;;;;;;;5058227;28;20044;-76
2023/06/06 08:33:02;;;;;;;9.65;6.25;;;;;;;;;;5050461;28;20071;-76
2023/06/06 08:35:28;;;;;;;11.82;5.80;;;;;;;;;;5059801;28;20021;-76
2023/06/06 08:37:54;;;;;;;7.63;5.32;;;;;;;;;;5059203;28;20029;-76
2023/06/06 08:40:21;;;;;;;10.57;5.50;;;;;;;;;;5054320;28;20029;-78
2023/06/06 08:42:52;;;;;;;7.68;5.47;;;;;;;;;;5059858;28;20078;-77
2023/06/06 08:45:21;;;;;;;7.25;4.95;;;;;;;;;;5050017;28;20047;-76
2023/06/06 08:47:49;;;;;;;6.93;5.20;;;;;;;;;;5058132;28;20071;-76
2023/06/06 08:50:16;;;;;;;7.35;5.15;;;;;;;;;;5055962;28;20875;-76
2023/06/06 08:52:42;;;;;;;8.85;5.20;;;;;;;;;;5057637;28;20108;-76
2023/06/06 08:55:09;;;;;;;8.55;4.60;;;;;;;;;;5056818;28;20029;-76
2023/06/06 08:57:41;;;;;;;8.38;4.90;;;;;;;;;;5061173;28;20098;-76
2023/06/06 09:00:11;;;;;;;8.32;5.63;;;;;;;;;;5064179;28;20135;-76
2023/06/06 09:02:47;;;;;;;6.53;4.53;;;;;;;;;;5061652;28;20390;-76
2023/06/06 09:05:15;;;;;;;6.80;4.72;;;;;;;;;;5057255;28;20028;-76
2023/06/06 09:07:41;;;;;;;7.75;4.65;;;;;;;;;;5057905;28;20116;-77
2023/06/06 09:10:08;;;;;;;5.65;4.57;;;;;;;;;;5059950;28;20033;-76
2023/06/06 09:12:41;;;;;;;9.18;4.60;;;;;;;;;;5056032;28;20025;-77
2023/06/06 09:15:07;;;;;;;10.10;4.57;;;;;;;;;;5058328;28;20831;-77
2023/06/06 09:17:40;;;;;;;6.88;4.13;;;;;;;;;;5053260;28;20047;-77
2023/06/06 09:20:15;;;;;;;6.72;4.80;;;;;;;;;;5058390;28;20094;-77
2023/06/06 09:22:45;;;;;;;9.20;4.80;;;;;;;;;;5054296;28;20040;-78
2023/06/06 09:25:17;;;;;;;8.20;4.45;;;;;;;;;;5057108;28;20021;-75
2023/06/06 09:27:43;;;;;;;8.45;5.88;;;;;;;;;;5063938;28;20587;-76
2023/06/06 09:30:26;;;;;;;8.32;5.35;;;;;;;;;;5062153;28;20040;-77
2023/06/06 09:33:01;;;;;;;7.95;5.10;;;;;;;;;;5054312;28;20060;-77
2023/06/06 09:35:27;;;;;;;;;;;;;;;;;;5056986;28;20040;-77
2023/06/06 09:37:53;;;;;;;10.68;5.72;;;;;;;;;;5056285;28;20503;-76
2023/06/06 09:40:19;;;;;;;9.32;5.10;;;;;;;;;;5058728;28;20395;-75
2023/06/06 09:42:46;;;;;;;7.22;5.05;;;;;;;;;;5056665;28;20132;-77
2023/06/06 09:45:13;;;;;;;9.48;5.82;;;;;;;;;;5059644;28;20646;-75
2023/06/06 09:47:40;;;;;;;8.88;5.35;;;;;;;;;;5053405;28;20182;-75
2023/06/06 09:50:06;;;;;;;8.18;5.47;;;;;;;;;;5056583;28;20043;-77
2023/06/06 09:52:32;;;;;;;8.48;5.35;;;;;;;;;;5047315;28;20029;-77
2023/06/06 09:54:59;;;;;;;10.35;5.18;;;;;;;;;;5058156;28;20028;-76
2023/06/06 09:57:26;;;;;;;7.90;5.38;;;;;;;;;;5053763;28;20394;-76
2023/06/06 09:59:54;;;;;;;8.43;5.25;;;;;;;;;;5057159;28;20518;-76
2023/06/06 10:02:21;;;;;;;7.40;5.38;;;;;;;;;;5064749;28;20102;-76
2023/06/06 10:04:48;;;;;;;9.02;6.07;;;;;;;;;;5053924;28;20029;-76
2023/06/06 10:07:14;;;;;;;9.30;4.97;;;;;;;;;;5057973;28;20394;-76
2023/06/06 10:09:41;;;;;;;7.53;4.65;;;;;;;;;;5059098;28;20446;-76
2023/06/06 10:12:07;;;;;;;9.02;5.90;;;;;;;;;;5057571;28;20032;-76
2023/06/06 10:14:33;;;;;;;7.35;5.50;;;;;;;;;;5058820;28;20032;-79
2023/06/06 10:17:01;;;;;;;9.02;5.20;;;;;;;;;;5064174;28;20033;-76
2023/06/06 10:19:28;;;;;;;7.60;5.10;;;;;;;;;;5051899;28;20029;-77
2023/06/06 10:21:55;;;;;;;10.45;5.65;;;;;;;;;;5057169;28;20027;-76
2023/06/06 10:24:21;;;;;;;10.00;4.88;;;;;;;;;;5056189;28;20028;-77
2023/06/06 10:26:51;;;;;;;10.00;5.22;;;;;;;;;;5055132;28;20024;-76
2023/06/06 10:29:29;;;;;;;7.05;4.70;;;;;;;;;;5055605;28;20036;-76
2023/06/06 10:31:59;;;;;;;13.32;5.85;;;;;;;;;;5054530;28;20482;-76
2023/06/06 10:34:28;;;;;;;6.78;5.18;;;;;;;;;;5059150;28;20036;-76
2023/06/06 10:36:57;;;;;;;9.10;5.25;;;;;;;;;;5053082;28;20406;-78
2023/06/06 10:39:25;;;;;;;9.07;5.47;;;;;;;;;;5059987;28;20031;-76
2023/06/06 10:41:51;;;;;;;6.65;4.72;;;;;;;;;;5054186;28;20032;-76
2023/06/06 10:44:27;;;;;;;7.22;4.80;;;;;;;;;;5056938;28;20101;-76
2023/06/06 10:47:12;;;;;;;8.55;5.00;;;;;;;;;;5061629;28;20490;-76
2023/06/06 10:49:43;;;;;;;8.45;5.43;;;;;;;;;;5060608;28;20456;-76
2023/06/06 10:52:09;;;;;;;6.53;5.63;;;;;;;;;;5058735;28;20024;-76
2023/06/06 10:54:35;;;;;;;9.40;5.63;;;;;;;;;;5059957;28;20036;-75
2023/06/06 10:57:01;;;;;;;7.55;5.90;;;;;;;;;;5060222;28;20031;-76
2023/06/06 10:59:28;;;;;;;13.13;5.70;;;;;;;;;;5058844;28;20162;-76
2023/06/06 11:01:54;;;;;;;15.60;7.03;;;;;;;;;;5061109;28;20043;-76
2023/06/06 11:04:25;;;;;;;11.30;6.35;;;;;;;;;;5062032;28;20028;-75
2023/06/06 11:06:52;;;;;;;13.23;6.25;;;;;;;;;;5056980;28;20032;-76
2023/06/06 11:09:22;;;;;;;12.00;6.50;;;;;;;;;;5061235;28;20089;-76
2023/06/06 11:11:48;;;;;;;10.88;6.03;;;;;;;;;;5060577;28;20041;-75
2023/06/06 11:14:19;;;;;;;13.35;6.72;;;;;;;;;;5060762;28;20032;-75
2023/06/06 11:16:45;;;;;;;7.80;5.80;;;;;;;;;;5056165;28;20107;-76
2023/06/06 11:19:15;;;;;;;10.15;6.85;;;;;;;;;;5061442;28;20068;-75
2023/06/06 11:21:51;;;;;;;12.63;6.75;;;;;;;;;;5058973;28;20028;-75
2023/06/06 11:24:18;;;;;;;11.23;7.20;;;;;;;;;;5056553;28;20025;-75
2023/06/06 11:26:45;;;;;;;11.52;7.05;;;;;;;;;;5061479;28;20032;-75
2023/06/06 11:29:12;;;;;;;9.07;6.75;;;;;;;;;;5057201;28;20091;-75
2023/06/06 11:31:39;;;;;;;10.82;7.50;;;;;;;;;;5052094;28;20625;-76
2023/06/06 11:34:09;;;;;;;10.88;7.18;;;;;;;;;;5050748;28;20036;-76
2023/06/06 11:36:36;;;;;;;11.85;6.88;;;;;;;;;;5049017;28;20437;-75
2023/06/06 11:39:04;;;;;;;10.73;7.63;;;;;;;;;;5054567;28;20458;-75
2023/06/06 11:41:30;;;;;;;10.27;6.85;;;;;;;;;;5059608;28;20868;-75
2023/06/06 11:43:57;;;;;;;11.40;7.13;;;;;;;;;;5055974;28;20493;-77
2023/06/06 11:46:23;;;;;;;10.90;7.63;;;;;;;;;;5054250;28;20523;-76
2023/06/06 11:48:58;;;;;;;13.88;7.55;;;;;;;;;;5056006;28;20028;-76
2023/06/06 11:51:25;;;;;;;9.70;7.05;;;;;;;;;;5057599;28;20032;-76
2023/06/06 11:53:51;;;;;;;9.57;8.02;;;;;;;;;;5054356;28;20319;-76
2023/06/06 11:56:19;;;;;;;11.65;7.35;;;;;;;;;;5049986;28;20029;-75
2023/06/06 11:58:45;;;;;;;11.82;8.25;;;;;;;;;;5059984;28;20351;-76
2023/06/06 12:01:15;;;;;;;11.45;8.05;;;;;;;;;;5055633;28;20056;-75
2023/06/06 12:03:42;;;;;;;10.30;7.80;;;;;;;;;;5055627;28;20020;-76
2023/06/06 12:06:09;;;;;;;10.82;7.35;;;;;;;;;;5060788;28;20028;-76
2023/06/06 12:08:36;;;;;;;14.30;7.88;;;;;;;;;;5059990;28;20032;-75
2023/06/06 12:11:34;;;;;;;15.57;8.48;;;;;;;;;;5056234;28;20028;-75
2023/06/06 12:14:11;;;;;;;12.48;7.97;;;;;;;;;;5022293;28;20113;-77
2023/06/06 12:16:37;;;;;;;13.38;8.18;;;;;;;;;;5056871;28;20098;-75
2023/06/06 12:19:11;;;;;;;13.45;8.10;;;;;;;;;;5054094;28;20040;-75
2023/06/06 12:21:44;;;;;;;10.93;8.05;;;;;;;;;;5056691;28;20118;-76
2023/06/06 12:24:17;;;;;;;10.60;7.47;;;;;;;;;;5054750;28;20337;-76
2023/06/06 12:26:53;;;;;;;14.27;7.65;;;;;;;;;;5060837;28;20028;-75
2023/06/06 12:29:28;;;;;;;10.93;6.97;;;;;;;;;;5054930;28;20377;-76
2023/06/06 12:32:13;;;;;;;9.68;7.28;;;;;;;;;;5054772;28;20527;-76
2023/06/06 12:34:48;;;;;;;11.25;7.43;;;;;;;;;;5058256;28;20028;-75
2023/06/06 12:37:14;;;;;;;9.88;7.53;;;;;;;;;;5056315;28;20055;-75
2023/06/06 12:39:41;;;;;;;9.98;7.13;;;;;;;;;;5057867;28;20029;-76
2023/06/06 12:42:18;;;;;;;10.70;6.85;;;;;;;;;;5060256;28;20035;-75
2023/06/06 12:44:44;;;;;;;10.02;7.00;;;;;;;;;;5057942;28;20033;-77
2023/06/06 12:47:14;;;;;;;9.35;6.80;;;;;;;;;;5057462;28;20031;-75
2023/06/06 12:49:40;;;;;;;8.57;6.60;;;;;;;;;;5061566;28;20024;-75
2023/06/06 12:52:07;;;;;;;10.38;6.43;;;;;;;;;;5058382;28;20129;-74
2023/06/06 12:54:39;;;;;;;8.55;7.00;;;;;;;;;;5058537;28;20048;-75
2023/06/06 12:57:05;;;;;;;11.52;6.85;;;;;;;;;;5055483;28;20391;-75
2023/06/06 12:59:31;;;;;;;10.38;6.47;;;;;;;;;;5060266;28;20027;-75
2023/06/06 13:01:58;;;;;;;11.02;6.78;;;;;;;;;;5054220;28;20032;-75
2023/06/06 13:04:26;;;;;;;9.75;6.60;;;;;;;;;;5054889;28;20021;-77
2023/06/06 13:06:52;;;;;;;8.82;6.25;;;;;;;;;;5062333;28;20055;-76
2023/06/06 13:09:21;;;;;;;8.30;6.00;;;;;;;;;;5056626;28;20143;-76
2023/06/06 13:11:48;;;;;;;9.43;6.88;;;;;;;;;;5056383;28;20085;-75
2023/06/06 13:14:14;;;;;;;8.45;6.43;;;;;;;;;;5059249;28;20031;-75
2023/06/06 13:16:41;;;;;;;8.50;5.82;;;;;;;;;;5059536;28;20081;-75
2023/06/06 13:19:07;;;;;;;10.85;7.13;;;;;;;;;;5063233;28;20061;-76
2023/06/06 13:21:33;;;;;;;11.85;6.78;;;;;;;;;;5058534;28;20087;-75
2023/06/06 13:23:59;;;;;;;8.70;5.80;;;;;;;;;;5060402;28;20044;-75
2023/06/06 13:26:26;;;;;;;9.00;5.72;;;;;;;;;;5060245;28;20021;-76
2023/06/06 13:28:52;;;;;;;8.93;5.97;;;;;;;;;;5058172;28;20107;-76
2023/06/06 13:31:18;;;;;;;7.65;5.90;;;;;;;;;;5057528;28;20098;-76
2023/06/06 13:33:44;;;;;;;10.55;5.95;;;;;;;;;;5061078;28;20052;-75
2023/06/06 13:36:10;;;;;;;9.00;5.97;;;;;;;;;;5061237;28;20032;-75
2023/06/06 13:38:36;;;;;;;11.38;7.15;;;;;;;;;;5063617;28;20024;-75
2023/06/06 13:41:03;;;;;;;9.30;6.40;;;;;;;;;;5059234;28;20439;-75
2023/06/06 13:43:29;;;;;;;10.52;6.72;;;;;;;;;;5065738;28;20085;-75
2023/06/06 13:45:56;;;;;;;10.20;6.85;;;;;;;;;;5063518;28;20060;-75
2023/06/06 13:48:22;;;;;;;9.18;6.70;;;;;;;;;;5061162;28;20028;-75
2023/06/06 13:50:48;;;;;;;9.20;6.55;;;;;;;;;;5066079;28;20493;-75
2023/06/06 13:53:14;;;;;;;10.82;6.00;;;;;;;;;;5066545;28;20110;-75
2023/06/06 13:55:41;;;;;;;9.23;6.90;;;;;;;;;;5063099;28;20028;-75
2023/06/06 13:58:08;;;;;;;10.18;6.40;;;;;;;;;;5060027;28;20672;-76
2023/06/06 14:00:37;;;;;;;8.27;5.72;;;;;;;;;;5080682;28;20398;-74
2023/06/06 14:03:03;;;;;;;10.27;6.35;;;;;;;;;;5057327;28;20037;-75
2023/06/06 14:05:29;;;;;;;9.63;5.85;;;;;;;;;;5064260;28;20062;-75
2023/06/06 14:07:55;;;;;;;10.30;6.18;;;;;;;;;;5060514;28;20490;-75
2023/06/06 14:10:21;;;;;;;9.57;6.45;;;;;;;;;;5062991;28;20032;-75
2023/06/06 14:12:48;;;;;;;12.38;5.78;;;;;;;;;;5061854;28;20132;-75
2023/06/06 14:15:15;;;;;;;9.52;6.07;;;;;;;;;;5079695;28;20345;-76
2023/06/06 14:17:41;;;;;;;7.18;5.88;;;;;;;;;;5062540;28;20037;-78
2023/06/06 14:20:11;;;;;;;9.60;6.53;;;;;;;;;;5063414;28;20048;-75
2023/06/06 14:22:41;;;;;;;8.15;5.25;;;;;;;;;;5066124;28;20251;-75
2023/06/06 14:25:07;;;;;;;7.97;4.93;;;;;;;;;;5062930;28;20422;-75
2023/06/06 14:27:33;;;;;;;8.75;5.55;;;;;;;;;;5061784;28;20031;-76
2023/06/06 14:30:00;;;;;;;7.05;5.30;;;;;;;;;;5059121;28;20674;-76
2023/06/06 14:32:30;;;;;;;7.35;5.43;;;;;;;;;;5059776;28;20478;-76
2023/06/06 14:34:58;;;;;;;6.93;5.35;;;;;;;;;;5059511;28;20024;-75
2023/06/06 14:37:24;;;;;;;6.30;5.50;;;;;;;;;;5058739;28;20036;-74
2023/06/06 14:39:51;;;;;;;7.10;4.97;;;;;;;;;;5059595;28;20028;-75